Time;durP1;ratioP1;P1;durP2;ratioP2;P2;SDS_P1;SDS_P2;PMS_P1;PMS_P2;Temp;Humidity;BMP_temperature;BMP_pressure;BME280_temperature;BME280_humidity;BME280_pressure;Samples;Min_cycle;Max_cycle;Signal;HPM_P1;HPM_P2
2021/04/30 00:00:30;;;;;;;14.90;13.23;;;11.60;99.90;;;;;;5093856;28;20227;-40
2021/04/30 00:02:57;;;;;;;13.18;11.98;;;11.60;99.90;;;;;;5094073;28;20317;-41
2021/04/30 00:05:26;;;;;;;12.90;11.07;;;11.70;99.90;;;;;;5093873;28;20788;-41
2021/04/30 00:07:53;;;;;;;12.73;11.52;;;11.70;99.90;;;;;;5094269;28;20215;-41
2021/04/30 00:10:21;;;;;;;11.52;10.35;;;11.70;99.90;;;;;;5093769;28;20576;-41
2021/04/30 00:12:48;;;;;;;12.48;11.25;;;11.70;99.90;;;;;;5094119;28;20661;-41
2021/04/30 00:15:15;;;;;;;13.00;10.23;;;11.70;99.90;;;;;;5094110;28;20246;-41
2021/04/30 00:17:43;;;;;;;11.65;10.32;;;11.70;99.90;;;;;;5093974;28;20207;-40
2021/04/30 00:20:12;;;;;;;13.35;10.55;;;11.70;99.90;;;;;;5094040;28;20704;-40
2021/04/30 00:22:39;;;;;;;12.38;11.15;;;11.70;99.90;;;;;;5094032;28;20245;-40
2021/04/30 00:25:07;;;;;;;10.55;9.65;;;11.70;99.90;;;;;;5093916;28;20241;-38
2021/04/30 00:27:35;;;;;;;10.75;9.75;;;11.70;99.90;;;;;;5093800;28;20206;-41
2021/04/30 00:30:03;;;;;;;11.30;10.20;;;11.70;99.90;;;;;;5093987;28;20206;-41
2021/04/30 00:32:30;;;;;;;11.70;10.55;;;11.60;99.90;;;;;;5093878;28;20289;-39
2021/04/30 00:35:00;;;;;;;11.52;10.52;;;11.60;99.90;;;;;;5093844;28;20620;-42
2021/04/30 00:37:27;;;;;;;12.75;11.38;;;11.60;99.90;;;;;;5093679;28;20281;-42
2021/04/30 00:39:54;;;;;;;12.55;11.43;;;11.60;99.90;;;;;;5093415;28;20289;-40
2021/04/30 00:42:21;;;;;;;11.65;10.55;;;11.60;99.90;;;;;;5093616;28;20206;-41
2021/04/30 00:44:47;;;;;;;11.27;10.23;;;11.60;99.90;;;;;;5093754;28;20209;-40
2021/04/30 00:47:26;;;;;;;11.90;10.27;;;11.60;99.90;;;;;;5093564;28;20264;-40
2021/04/30 00:49:53;;;;;;;13.20;10.95;;;11.60;99.90;;;;;;5093541;28;20203;-41
2021/04/30 00:52:21;;;;;;;13.32;11.85;;;11.60;99.90;;;;;;5093394;28;20683;-41
2021/04/30 00:54:48;;;;;;;12.02;10.77;;;11.60;99.90;;;;;;5093223;28;20301;-41
2021/04/30 00:57:15;;;;;;;11.73;10.55;;;11.50;99.90;;;;;;5093200;28;20743;-41
2021/04/30 00:59:42;;;;;;;13.13;10.60;;;11.50;99.90;;;;;;5093308;28;20634;-40
2021/04/30 01:02:13;;;;;;;11.10;10.07;;;11.50;99.90;;;;;;5093388;28;20253;-40
2021/04/30 01:04:40;;;;;;;12.13;10.95;;;11.50;99.90;;;;;;5093181;28;20280;-40
2021/04/30 01:07:07;;;;;;;11.25;9.98;;;11.50;99.90;;;;;;5092926;28;20306;-41
2021/04/30 01:09:35;;;;;;;11.45;10.20;;;11.50;99.90;;;;;;5093102;28;20213;-40
2021/04/30 01:12:04;;;;;;;12.60;11.40;;;11.50;99.90;;;;;;5093303;28;20207;-41
2021/04/30 01:14:31;;;;;;;12.57;11.38;;;11.50;99.90;;;;;;5092899;28;20210;-41
2021/04/30 01:16:58;;;;;;;11.60;10.50;;;11.50;99.90;;;;;;5092933;28;20580;-41
2021/04/30 01:19:27;;;;;;;12.30;11.02;;;11.40;99.90;;;;;;5092868;28;20692;-39
2021/04/30 01:21:56;;;;;;;12.15;10.82;;;11.40;99.90;;;;;;5092260;28;20321;-40
2021/04/30 01:24:24;;;;;;;11.05;10.05;;;11.30;99.90;;;;;;5092744;28;20321;-40
2021/04/30 01:26:52;;;;;;;12.43;11.32;;;11.30;99.90;;;;;;5092936;28;20298;-40
2021/04/30 01:29:19;;;;;;;12.82;11.63;;;11.30;99.90;;;;;;5092711;28;20257;-40
2021/04/30 01:31:47;;;;;;;11.88;10.88;;;11.20;99.90;;;;;;5092621;28;20199;-40
2021/04/30 01:34:14;;;;;;;12.63;11.52;;;11.20;99.90;;;;;;5092574;28;20309;-40
2021/04/30 01:36:42;;;;;;;13.40;12.20;;;11.20;99.90;;;;;;5092446;28;20211;-39
2021/04/30 01:39:13;;;;;;;14.10;12.65;;;11.20;99.90;;;;;;5092496;28;20656;-39
2021/04/30 01:41:41;;;;;;;12.75;11.18;;;11.20;99.90;;;;;;5092606;28;20734;-40
2021/04/30 01:44:09;;;;;;;12.98;11.82;;;11.20;99.90;;;;;;5092397;28;20297;-40
2021/04/30 01:46:37;;;;;;;12.40;11.13;;;11.10;99.90;;;;;;5092401;28;20248;-39
2021/04/30 01:49:04;;;;;;;13.45;12.15;;;11.10;99.90;;;;;;5092383;28;20661;-40
2021/04/30 01:51:33;;;;;;;12.48;11.30;;;11.10;99.90;;;;;;5092275;28;20206;-40
2021/04/30 01:54:00;;;;;;;14.30;13.00;;;11.10;99.90;;;;;;5092495;28;20289;-39
2021/04/30 01:56:28;;;;;;;15.20;13.70;;;11.10;99.90;;;;;;5092441;28;20209;-40
2021/04/30 01:58:55;;;;;;;13.95;12.65;;;11.00;99.90;;;;;;5091999;28;20257;-39
2021/04/30 02:01:22;;;;;;;14.20;12.90;;;11.00;99.90;;;;;;5091998;28;20233;-39
2021/04/30 02:03:49;;;;;;;15.25;13.90;;;11.00;99.90;;;;;;5092407;28;20203;-39
2021/04/30 02:06:16;;;;;;;14.57;12.93;;;11.00;99.90;;;;;;5092079;28;20234;-39
2021/04/30 02:08:43;;;;;;;14.80;13.38;;;11.00;99.90;;;;;;5092292;28;20206;-39
2021/04/30 02:11:10;;;;;;;17.67;14.48;;;10.90;99.90;;;;;;5092249;28;20210;-39
2021/04/30 02:13:38;;;;;;;14.90;13.40;;;10.90;99.90;;;;;;5092183;28;20203;-39
2021/04/30 02:16:05;;;;;;;17.30;13.38;;;10.90;99.90;;;;;;5092060;28;20242;-39
2021/04/30 02:18:32;;;;;;;16.23;14.52;;;10.90;99.90;;;;;;5091984;28;20293;-40
2021/04/30 02:20:59;;;;;;;17.30;15.45;;;10.90;99.90;;;;;;5092009;28;20351;-39
2021/04/30 02:23:26;;;;;;;16.02;14.50;;;10.90;99.90;;;;;;5092034;28;20661;-40
2021/04/30 02:25:53;;;;;;;17.10;15.48;;;11.00;99.90;;;;;;5092085;28;20289;-39
2021/04/30 02:28:20;;;;;;;14.95;13.70;;;11.10;99.90;;;;;;5092008;28;20238;-40
2021/04/30 02:30:48;;;;;;;14.80;13.35;;;11.10;99.90;;;;;;5092090;28;20633;-40
2021/04/30 02:33:15;;;;;;;14.20;12.88;;;11.10;99.90;;;;;;5092107;28;20297;-40
2021/04/30 02:35:44;;;;;;;15.07;13.57;;;11.00;99.90;;;;;;5095960;28;20301;-40
2021/04/30 02:38:13;;;;;;;16.95;15.30;;;10.90;99.90;;;;;;5096113;28;20206;-40
2021/04/30 02:40:42;;;;;;;16.58;14.90;;;10.80;99.90;;;;;;5095886;28;20295;-42
2021/04/30 02:43:13;;;;;;;17.45;14.20;;;10.70;99.90;;;;;;5095891;28;20700;-40
2021/04/30 02:45:41;;;;;;;15.90;14.43;;;10.50;99.90;;;;;;5096020;28;20233;-40
2021/04/30 02:48:12;;;;;;;14.82;13.50;;;10.50;99.90;;;;;;5095906;28;20575;-41
2021/04/30 02:50:41;;;;;;;16.17;14.55;;;10.40;99.90;;;;;;5095842;28;20242;-40
2021/04/30 02:53:08;;;;;;;16.60;15.00;;;10.40;99.90;;;;;;5095820;28;20222;-39
2021/04/30 02:55:35;;;;;;;16.98;15.30;;;10.40;99.90;;;;;;5095660;28;20297;-40
2021/04/30 02:58:02;;;;;;;16.27;14.75;;;10.50;99.90;;;;;;5095788;28;20550;-40
2021/04/30 03:00:30;;;;;;;15.85;14.40;;;10.50;99.90;;;;;;5095666;28;20210;-40
2021/04/30 03:02:58;;;;;;;17.42;15.40;;;10.60;99.90;;;;;;5095538;28;20618;-40
2021/04/30 03:05:26;;;;;;;16.42;14.68;;;10.70;99.90;;;;;;5095443;28;20234;-40
2021/04/30 03:07:53;;;;;;;16.35;14.80;;;10.80;99.90;;;;;;5095484;28;20219;-40
2021/04/30 03:10:20;;;;;;;16.92;15.32;;;10.80;99.90;;;;;;5095642;28;20211;-39
2021/04/30 03:12:48;;;;;;;18.00;16.13;;;10.80;99.90;;;;;;5095603;28;20231;-40
2021/04/30 03:15:16;;;;;;;16.13;14.55;;;10.80;99.90;;;;;;5095221;28;20218;-41
2021/04/30 03:17:44;;;;;;;16.10;14.63;;;10.80;99.90;;;;;;5095442;28;20658;-37
2021/04/30 03:20:13;;;;;;;17.75;16.00;;;10.80;99.90;;;;;;5095311;28;20211;-38
2021/04/30 03:22:41;;;;;;;16.92;15.15;;;10.80;99.90;;;;;;5095072;28;20309;-40
2021/04/30 03:25:09;;;;;;;16.58;15.18;;;10.70;99.90;;;;;;5095380;28;20206;-39
2021/04/30 03:27:36;;;;;;;16.55;14.85;;;10.70;99.90;;;;;;5095042;28;20250;-41
2021/04/30 03:30:05;;;;;;;18.15;16.08;;;10.80;99.90;;;;;;5095027;28;20728;-39
2021/04/30 03:32:32;;;;;;;16.67;14.93;;;10.80;99.90;;;;;;5095141;28;20282;-38
2021/04/30 03:34:59;;;;;;;16.77;14.38;;;10.80;99.90;;;;;;5094932;28;20297;-39
2021/04/30 03:37:26;;;;;;;17.23;14.95;;;10.60;99.90;;;;;;5094819;28;20294;-39
2021/04/30 03:39:53;;;;;;;15.55;14.05;;;10.40;99.90;;;;;;5094909;28;20297;-39
2021/04/30 03:42:20;;;;;;;15.65;14.02;;;10.30;99.90;;;;;;5094865;28;20226;-38
2021/04/30 03:44:47;;;;;;;15.95;14.48;;;10.10;99.90;;;;;;5094692;28;20207;-38
2021/04/30 03:47:14;;;;;;;16.38;14.75;;;10.00;99.90;;;;;;5094207;28;20210;-38
2021/04/30 03:49:42;;;;;;;17.80;16.05;;;10.00;99.90;;;;;;5094676;28;20574;-38
2021/04/30 03:52:09;;;;;;;14.95;13.55;;;10.00;99.90;;;;;;5094809;28;20626;-39
2021/04/30 03:54:36;;;;;;;14.40;12.82;;;10.10;99.90;;;;;;5094488;28;20211;-39
2021/04/30 03:57:04;;;;;;;14.63;13.20;;;10.20;99.90;;;;;;5094449;28;20206;-39
2021/04/30 03:59:31;;;;;;;14.73;13.38;;;10.30;99.90;;;;;;5094465;28;20289;-40
2021/04/30 04:01:58;;;;;;;14.65;13.20;;;10.40;99.90;;;;;;5094150;28;20313;-39
2021/04/30 04:04:26;;;;;;;15.30;13.70;;;10.40;99.90;;;;;;5093889;28;20207;-40
2021/04/30 04:06:53;;;;;;;16.75;14.02;;;10.30;99.90;;;;;;5093618;28;20235;-40
2021/04/30 04:09:20;;;;;;;15.07;13.68;;;10.40;99.90;;;;;;5093788;28;20726;-40
2021/04/30 04:11:47;;;;;;;14.77;13.38;;;10.40;99.90;;;;;;5093670;28;20679;-38
2021/04/30 04:14:15;;;;;;;15.27;13.77;;;10.50;99.90;;;;;;5093646;28;20288;-39
2021/04/30 04:16:42;;;;;;;16.05;14.45;;;10.50;99.90;;;;;;5093628;28;20210;-39
2021/04/30 04:19:09;;;;;;;15.68;14.20;;;10.40;99.90;;;;;;5093761;28;20294;-38
2021/04/30 04:21:36;;;;;;;16.35;14.75;;;10.30;99.90;;;;;;5093776;28;20229;-38
2021/04/30 04:24:04;;;;;;;16.67;15.02;;;10.20;99.90;;;;;;5093884;28;20293;-38
2021/04/30 04:26:31;;;;;;;15.90;14.40;;;10.10;99.90;;;;;;5093846;28;20217;-37
2021/04/30 04:28:58;;;;;;;16.35;14.77;;;10.10;99.90;;;;;;5093808;28;20206;-38
2021/04/30 04:31:26;;;;;;;15.40;13.95;;;10.20;99.90;;;;;;5093695;28;20233;-38
2021/04/30 04:33:53;;;;;;;15.00;13.60;;;10.40;99.90;;;;;;5094100;28;20297;-38
2021/04/30 04:36:20;;;;;;;16.02;14.45;;;10.40;99.90;;;;;;5093925;28;20244;-38
2021/04/30 04:38:47;;;;;;;14.93;13.43;;;10.50;99.90;;;;;;5093798;28;20238;-38
2021/04/30 04:41:14;;;;;;;18.10;15.95;;;10.50;99.90;;;;;;5093630;28;20223;-40
2021/04/30 04:43:41;;;;;;;16.88;15.27;;;10.60;99.90;;;;;;5093589;28;20614;-40
2021/04/30 04:46:07;;;;;;;15.40;13.90;;;10.60;99.90;;;;;;5093526;28;20213;-39
2021/04/30 04:48:35;;;;;;;15.70;14.13;;;10.70;99.90;;;;;;5093735;28;20206;-39
2021/04/30 04:51:03;;;;;;;16.00;14.35;;;10.70;99.90;;;;;;5093425;28;20665;-39
2021/04/30 04:53:29;;;;;;;18.77;14.77;;;10.80;99.90;;;;;;5093596;28;20309;-39
2021/04/30 04:56:16;;;;;;;15.50;13.85;;;10.80;99.90;;;;;;5093273;28;20203;-39
2021/04/30 04:58:43;;;;;;;15.48;13.90;;;11.00;99.90;;;;;;5092272;28;20720;-40
2021/04/30 05:01:10;;;;;;;15.65;14.05;;;11.00;99.90;;;;;;5093390;28;20313;-39
2021/04/30 05:03:38;;;;;;;15.80;14.27;;;11.00;99.90;;;;;;5093560;28;20302;-39
2021/04/30 05:06:05;;;;;;;18.15;16.05;;;11.00;99.90;;;;;;5093093;28;20234;-39
2021/04/30 05:08:32;;;;;;;16.27;14.57;;;11.10;99.90;;;;;;5092915;28;20294;-39
2021/04/30 05:10:59;;;;;;;15.23;13.77;;;11.10;99.90;;;;;;5092887;28;20234;-40
2021/04/30 05:13:26;;;;;;;16.98;15.30;;;11.00;99.90;;;;;;5093259;28;20567;-39
2021/04/30 05:15:56;;;;;;;15.35;13.95;;;11.00;99.90;;;;;;5092756;28;20218;-40
2021/04/30 05:18:23;;;;;;;14.75;13.35;;;11.00;99.90;;;;;;5092895;28;20210;-40
2021/04/30 05:20:51;;;;;;;15.95;14.18;;;11.00;99.90;;;;;;5092761;28;20239;-40
2021/04/30 05:23:18;;;;;;;16.85;15.35;;;11.10;99.90;;;;;;5092476;28;20203;-40
2021/04/30 05:25:46;;;;;;;15.95;14.40;;;11.10;99.90;;;;;;5092903;28;20211;-40
2021/04/30 05:28:13;;;;;;;16.17;14.48;;;11.20;99.90;;;;;;5093045;28;20555;-41
2021/04/30 05:30:40;;;;;;;15.98;14.20;;;11.30;99.90;;;;;;5092785;28;20589;-41
2021/04/30 05:33:07;;;;;;;16.73;14.75;;;11.30;99.90;;;;;;5092546;28;20202;-41
2021/04/30 05:35:34;;;;;;;16.27;14.57;;;11.40;99.90;;;;;;5092531;28;20698;-40
2021/04/30 05:38:04;;;;;;;15.73;14.18;;;11.40;99.90;;;;;;5092201;28;20685;-40
2021/04/30 05:40:31;;;;;;;16.02;14.60;;;11.30;99.90;;;;;;5092766;28;20279;-42
2021/04/30 05:42:58;;;;;;;16.52;14.88;;;11.30;99.90;;;;;;5092444;28;20746;-40
2021/04/30 05:45:25;;;;;;;14.85;13.32;;;11.30;99.90;;;;;;5092226;28;20241;-40
2021/04/30 05:47:52;;;;;;;16.80;15.25;;;11.20;99.90;;;;;;5091997;28;20238;-40
2021/04/30 05:50:19;;;;;;;16.80;14.95;;;11.10;99.90;;;;;;5092124;28;20297;-41
2021/04/30 05:52:46;;;;;;;15.55;13.95;;;11.00;99.90;;;;;;5092007;28;20241;-40
2021/04/30 05:55:14;;;;;;;18.17;15.02;;;11.10;99.90;;;;;;5092035;28;20211;-40
2021/04/30 05:57:41;;;;;;;15.13;13.73;;;11.10;99.90;;;;;;5091847;28;20294;-40
2021/04/30 06:00:10;;;;;;;15.70;14.18;;;11.20;99.90;;;;;;5092146;28;20210;-39
2021/04/30 06:02:37;;;;;;;16.17;14.50;;;11.20;99.90;;;;;;5091769;28;20788;-39
2021/04/30 06:05:06;;;;;;;16.08;14.27;;;11.20;99.90;;;;;;5091588;28;20705;-39
2021/04/30 06:07:33;;;;;;;14.00;12.70;;;11.20;99.70;;;;;;5092247;28;20289;-41
2021/04/30 06:10:02;;;;;;;16.58;12.10;;;11.30;99.40;;;;;;5091850;28;20279;-40
2021/04/30 06:12:30;;;;;;;12.07;10.95;;;11.20;99.20;;;;;;5092011;28;20234;-40
2021/04/30 06:14:57;;;;;;;13.90;12.60;;;11.30;98.80;;;;;;5091941;28;20724;-40
2021/04/30 06:17:24;;;;;;;13.07;11.70;;;11.30;98.20;;;;;;5091945;28;20214;-39
2021/04/30 06:19:51;;;;;;;13.20;11.90;;;11.30;97.70;;;;;;5091936;28;20669;-43
2021/04/30 06:22:19;;;;;;;13.85;12.32;;;11.30;97.40;;;;;;5092049;28;20227;-41
2021/04/30 06:24:46;;;;;;;12.52;11.23;;;11.50;96.80;;;;;;5092037;28;20256;-41
2021/04/30 06:27:13;;;;;;;12.45;11.35;;;11.60;96.30;;;;;;5091968;28;20641;-40
2021/04/30 06:29:40;;;;;;;12.15;11.05;;;11.70;95.90;;;;;;5092215;28;20202;-40
2021/04/30 06:32:08;;;;;;;13.00;11.75;;;11.80;95.60;;;;;;5092044;28;20289;-43
2021/04/30 06:34:36;;;;;;;13.10;11.88;;;11.90;95.30;;;;;;5092163;28;20311;-43
2021/04/30 06:37:03;;;;;;;12.23;11.13;;;11.90;95.20;;;;;;5092158;28;20206;-43
2021/04/30 06:39:31;;;;;;;12.68;11.48;;;12.00;95.10;;;;;;5091957;28;20215;-46
2021/04/30 06:42:02;;;;;;;13.05;11.82;;;12.00;94.70;;;;;;5091985;28;20580;-45
2021/04/30 06:44:30;;;;;;;13.73;12.32;;;12.10;94.50;;;;;;5091833;28;20203;-43
2021/04/30 06:46:59;;;;;;;13.20;11.90;;;12.30;94.30;;;;;;5091707;28;20221;-41
2021/04/30 06:49:26;;;;;;;13.48;12.23;;;12.40;93.80;;;;;;5091984;28;20211;-41
2021/04/30 06:51:53;;;;;;;12.77;11.57;;;12.50;93.60;;;;;;5091953;28;20234;-41
2021/04/30 06:54:20;;;;;;;13.23;12.02;;;12.60;93.40;;;;;;5091555;28;20261;-41
2021/04/30 06:56:47;;;;;;;12.27;11.10;;;12.70;93.10;;;;;;5091700;28;20662;-42
2021/04/30 06:59:14;;;;;;;14.52;11.23;;;12.70;92.70;;;;;;5091625;28;20741;-41
2021/04/30 07:01:41;;;;;;;11.52;10.50;;;12.60;92.80;;;;;;5091837;28;20238;-41
2021/04/30 07:04:10;;;;;;;11.55;10.35;;;12.70;92.70;;;;;;5091836;28;20221;-41
2021/04/30 07:06:37;;;;;;;11.43;10.45;;;12.70;92.30;;;;;;5091646;28;20285;-41
2021/04/30 07:09:05;;;;;;;12.25;10.98;;;12.90;92.20;;;;;;5091832;28;20244;-40
2021/04/30 07:11:32;;;;;;;12.65;11.32;;;13.10;91.90;;;;;;5091745;28;20310;-41
2021/04/30 07:14:00;;;;;;;12.15;11.05;;;13.20;91.70;;;;;;5091222;28;20534;-40
2021/04/30 07:16:27;;;;;;;12.18;11.15;;;13.20;91.50;;;;;;5091465;28;20669;-40
2021/04/30 07:18:54;;;;;;;12.70;10.98;;;13.30;91.70;;;;;;5091375;28;20206;-41
2021/04/30 07:21:21;;;;;;;13.70;12.43;;;13.30;91.30;;;;;;5092895;28;20273;-41
2021/04/30 07:23:49;;;;;;;13.52;12.05;;;13.30;91.30;;;;;;5095077;28;20633;-41
2021/04/30 07:26:16;;;;;;;12.30;11.07;;;13.20;91.40;;;;;;5094974;28;20267;-42
2021/04/30 07:28:43;;;;;;;12.18;11.07;;;13.20;91.40;;;;;;5094827;28;20222;-41
2021/04/30 07:31:10;;;;;;;12.63;11.32;;;13.20;91.40;;;;;;5094739;28;20226;-44
2021/04/30 07:33:43;;;;;;;13.35;12.05;;;13.30;91.40;;;;;;5094568;28;20310;-43
2021/04/30 07:36:10;;;;;;;16.10;12.50;;;13.30;91.30;;;;;;5094586;28;20211;-41
2021/04/30 07:38:38;;;;;;;12.48;11.40;;;13.20;91.40;;;;;;5094302;28;20291;-40
2021/04/30 07:41:05;;;;;;;13.98;12.75;;;13.30;91.50;;;;;;5094188;28;20203;-41
2021/04/30 07:43:32;;;;;;;11.93;10.82;;;13.40;91.30;;;;;;5097933;28;20265;-44
2021/04/30 07:46:00;;;;;;;12.63;11.50;;;13.50;91.20;;;;;;5099575;28;20210;-42
2021/04/30 07:48:28;;;;;;;13.55;12.05;;;13.50;90.90;;;;;;5094244;28;20214;-42
2021/04/30 07:50:58;;;;;;;12.70;11.48;;;13.50;90.80;;;;;;5093881;28;20676;-42
2021/04/30 07:53:26;;;;;;;12.02;10.90;;;13.60;90.70;;;;;;5094125;28;20260;-43
2021/04/30 07:55:54;;;;;;;12.88;11.65;;;13.60;90.70;;;;;;5094250;28;20249;-42
2021/04/30 07:58:25;;;;;;;14.25;12.43;;;13.70;90.70;;;;;;5094020;28;20299;-42
2021/04/30 08:00:53;;;;;;;12.20;11.07;;;13.80;90.40;;;;;;5094020;28;20313;-42
2021/04/30 08:03:21;;;;;;;12.60;11.45;;;14.00;90.10;;;;;;5093705;28;20238;-41
2021/04/30 08:05:49;;;;;;;11.70;10.60;;;14.00;89.80;;;;;;5093416;28;20284;-41
2021/04/30 08:08:16;;;;;;;13.02;11.73;;;14.10;89.70;;;;;;5093907;28;20302;-41
2021/04/30 08:10:43;;;;;;;14.20;11.38;;;14.10;89.20;;;;;;5093742;28;20261;-41
2021/04/30 08:13:11;;;;;;;13.20;11.90;;;14.20;88.90;;;;;;5093721;28;20218;-41
2021/04/30 08:15:38;;;;;;;14.13;12.68;;;14.30;88.40;;;;;;5093441;28;20207;-44
2021/04/30 08:18:06;;;;;;;14.05;12.75;;;14.50;88.20;;;;;;5093369;28;20239;-43
2021/04/30 08:20:33;;;;;;;14.57;13.05;;;14.50;87.70;;;;;;5093650;28;20255;-40
2021/04/30 08:23:00;;;;;;;17.58;13.00;;;14.50;88.10;;;;;;5093729;28;20223;-41
2021/04/30 08:25:27;;;;;;;16.42;12.75;;;14.50;88.30;;;;;;5093724;28;20438;-40
2021/04/30 08:27:55;;;;;;;12.07;11.05;;;14.50;88.60;;;;;;5093234;28;20710;-40
2021/04/30 08:30:23;;;;;;;14.13;12.82;;;14.50;88.70;;;;;;5093200;28;20247;-40
2021/04/30 08:32:50;;;;;;;13.98;12.68;;;14.60;88.80;;;;;;5092884;28;20333;-40
2021/04/30 08:35:17;;;;;;;14.57;13.25;;;14.70;89.00;;;;;;5093040;28;20238;-40
2021/04/30 08:37:44;;;;;;;14.27;12.82;;;14.80;88.90;;;;;;5093356;28;20293;-39
2021/04/30 08:40:11;;;;;;;13.65;12.30;;;14.90;89.00;;;;;;5093302;28;20210;-40
2021/04/30 08:42:39;;;;;;;15.40;13.63;;;14.90;89.10;;;;;;5093211;28;20318;-40
2021/04/30 08:45:12;;;;;;;13.48;12.27;;;15.10;89.10;;;;;;5093293;28;20203;-40
2021/04/30 08:47:40;;;;;;;14.65;13.23;;;15.20;88.80;;;;;;5092985;28;20210;-40
2021/04/30 08:50:07;;;;;;;13.75;12.48;;;15.20;88.60;;;;;;5093210;28;20209;-39
2021/04/30 08:52:35;;;;;;;13.95;12.57;;;15.30;88.70;;;;;;5092914;28;20252;-40
2021/04/30 08:55:06;;;;;;;13.50;12.25;;;15.40;88.00;;;;;;5093049;28;20217;-40
2021/04/30 08:57:35;;;;;;;12.98;11.77;;;15.50;87.60;;;;;;5093118;28;20237;-40
2021/04/30 09:00:05;;;;;;;13.35;12.05;;;15.60;87.30;;;;;;5092879;28;20624;-39
2021/04/30 09:02:33;;;;;;;13.65;12.23;;;15.70;86.80;;;;;;5092859;28;20335;-42
2021/04/30 09:05:02;;;;;;;14.32;12.23;;;15.70;86.70;;;;;;5092973;28;20257;-40
2021/04/30 09:07:29;;;;;;;14.05;12.55;;;15.80;86.70;;;;;;5092931;28;20215;-40
2021/04/30 09:09:58;;;;;;;14.70;13.20;;;15.80;86.60;;;;;;5092728;28;20539;-40
2021/04/30 09:12:26;;;;;;;14.10;12.70;;;15.80;86.70;;;;;;5092538;28;20199;-41
2021/04/30 09:14:53;;;;;;;14.45;11.02;;;15.90;86.60;;;;;;5092412;28;20206;-41
2021/04/30 09:17:20;;;;;;;15.07;13.57;;;16.00;86.30;;;;;;5092771;28;20284;-41
2021/04/30 09:19:51;;;;;;;13.38;12.10;;;16.10;85.80;;;;;;5092466;28;20732;-40
2021/04/30 09:22:23;;;;;;;13.73;12.43;;;16.10;85.90;;;;;;5092409;28;20807;-41
2021/04/30 09:24:55;;;;;;;16.00;12.93;;;16.10;85.40;;;;;;5092399;28;20206;-41
2021/04/30 09:27:30;;;;;;;13.13;11.85;;;16.10;85.40;;;;;;5092676;28;20194;-41
2021/04/30 09:30:16;;;;;;;13.43;12.18;;;16.10;85.10;;;;;;5092327;28;20237;-40
2021/04/30 09:33:10;;;;;;;12.80;11.60;;;16.10;85.10;;;;;;5092127;28;20199;-41
2021/04/30 09:35:40;;;;;;;14.45;12.20;;;16.20;84.80;;;;;;5091910;28;20211;-40
2021/04/30 09:38:20;;;;;;;14.57;13.02;;;16.10;85.20;;;;;;5092049;28;20242;-40
2021/04/30 09:40:48;;;;;;;21.77;15.13;;;16.00;85.10;;;;;;5091952;28;20264;-41
2021/04/30 09:43:16;;;;;;;13.40;12.10;;;15.90;85.40;;;;;;5091228;28;20229;-40
2021/04/30 09:45:45;;;;;;;19.00;13.73;;;16.00;85.40;;;;;;5091877;28;20310;-41
2021/04/30 09:48:14;;;;;;;13.88;12.57;;;16.10;85.20;;;;;;5091929;28;20203;-42
2021/04/30 09:50:42;;;;;;;13.13;11.93;;;16.40;84.60;;;;;;5091727;28;20306;-42
2021/04/30 09:53:12;;;;;;;14.90;12.07;;;16.70;83.90;;;;;;5091809;28;20625;-42
2021/04/30 09:55:42;;;;;;;13.00;11.80;;;16.90;83.20;;;;;;5091686;28;20706;-39
2021/04/30 09:58:14;;;;;;;13.32;12.02;;;17.20;82.30;;;;;;5091834;28;20206;-40
2021/04/30 10:00:41;;;;;;;13.40;12.10;;;17.50;81.60;;;;;;5092071;28;20306;-40
2021/04/30 10:03:16;;;;;;;14.25;12.95;;;17.80;80.60;;;;;;5091591;28;20231;-41
2021/04/30 10:06:11;;;;;;;13.23;11.90;;;18.00;79.60;;;;;;5091480;28;20242;-43
2021/04/30 10:08:38;;;;;;;15.13;11.82;;;18.00;78.90;;;;;;5091647;28;20696;-40
2021/04/30 10:11:30;;;;;;;12.45;11.23;;;17.90;79.40;;;;;;5091892;28;20210;-41
2021/04/30 10:13:57;;;;;;;13.90;12.60;;;17.80;79.00;;;;;;5091895;28;20234;-42
2021/04/30 10:16:24;;;;;;;12.90;11.60;;;17.80;79.70;;;;;;5091922;28;20203;-41
2021/04/30 10:18:52;;;;;;;14.07;12.68;;;17.70;79.60;;;;;;5091718;28;20214;-40
2021/04/30 10:21:20;;;;;;;12.52;11.45;;;17.80;79.60;;;;;;5091496;28;20202;-40
2021/04/30 10:23:50;;;;;;;14.13;12.80;;;17.80;80.20;;;;;;5091778;28;20238;-41
2021/04/30 10:26:20;;;;;;;14.25;12.98;;;18.00;79.20;;;;;;5096944;28;20671;-42
2021/04/30 10:28:52;;;;;;;13.18;12.00;;;18.20;78.70;;;;;;5112215;28;20206;-41
2021/04/30 10:31:27;;;;;;;41.10;36.75;;;18.40;79.20;;;;;;5111991;28;20242;-42
2021/04/30 10:33:58;;;;;;;15.43;13.93;;;18.70;77.50;;;;;;5097192;28;20363;-42
2021/04/30 10:36:29;;;;;;;14.38;13.10;;;18.90;77.00;;;;;;5091744;28;20241;-42
2021/04/30 10:38:59;;;;;;;13.80;12.27;;;19.00;76.70;;;;;;5091585;28;20202;-42
2021/04/30 10:41:29;;;;;;;13.38;12.00;;;18.90;76.60;;;;;;5091331;28;20554;-42
2021/04/30 10:44:13;;;;;;;15.07;13.52;;;18.70;77.00;;;;;;5091356;28;20704;-41
2021/04/30 10:46:41;;;;;;;13.95;12.52;;;18.40;77.60;;;;;;5091704;28;20222;-43
2021/04/30 10:49:17;;;;;;;14.57;13.07;;;18.20;78.40;;;;;;5091564;28;20235;-41
2021/04/30 10:51:59;;;;;;;14.18;12.85;;;18.30;78.30;;;;;;5091642;28;20256;-41
2021/04/30 10:54:27;;;;;;;14.77;13.48;;;18.30;78.10;;;;;;5091296;28;20207;-41
2021/04/30 10:56:59;;;;;;;15.75;13.77;;;18.30;78.20;;;;;;5094078;28;20754;-41
2021/04/30 10:59:28;;;;;;;14.82;13.43;;;18.40;78.00;;;;;;5095599;28;20229;-43
2021/04/30 11:02:02;;;;;;;13.88;12.57;;;18.60;78.10;;;;;;5095060;28;20289;-42
2021/04/30 11:04:31;;;;;;;14.25;13.05;;;18.70;77.80;;;;;;5095497;28;20264;-41
2021/04/30 11:06:58;;;;;;;16.40;14.93;;;18.70;77.90;;;;;;5094925;28;20238;-41
2021/04/30 11:09:34;;;;;;;15.27;13.98;;;18.80;77.90;;;;;;5095071;28;20268;-41
2021/04/30 11:12:18;;;;;;;16.08;14.68;;;18.80;78.10;;;;;;5095226;28;20203;-40
2021/04/30 11:14:57;;;;;;;15.73;14.23;;;18.80;78.10;;;;;;5095270;28;20206;-42
2021/04/30 11:17:46;;;;;;;14.90;13.43;;;18.90;78.00;;;;;;5094981;28;20242;-41
2021/04/30 11:20:17;;;;;;;15.27;13.75;;;18.90;77.70;;;;;;5090772;28;20211;-41
2021/04/30 11:23:17;;;;;;;16.92;15.20;;;18.90;78.10;;;;;;5094928;28;20241;-41
2021/04/30 11:26:07;;;;;;;18.00;16.35;;;18.80;78.50;;;;;;5108638;28;20221;-41
2021/04/30 11:29:07;;;;;;;15.35;14.05;;;18.80;78.80;;;;;;5114984;28;20206;-40
2021/04/30 11:31:36;;;;;;;15.88;14.48;;;18.80;78.60;;;;;;5098356;28;20235;-41
2021/04/30 11:34:23;;;;;;;16.58;15.07;;;18.70;78.70;;;;;;5094549;28;20211;-40
2021/04/30 11:36:56;;;;;;;15.63;14.32;;;18.60;78.90;;;;;;5094620;28;20206;-40
2021/04/30 11:39:29;;;;;;;14.63;13.32;;;18.60;79.00;;;;;;5094363;28;20211;-40
2021/04/30 11:42:02;;;;;;;15.13;13.68;;;18.60;79.10;;;;;;5094465;28;20203;-40
2021/04/30 11:44:30;;;;;;;15.13;13.77;;;18.70;78.90;;;;;;5094204;28;20207;-41
2021/04/30 11:47:02;;;;;;;15.15;13.70;;;18.90;78.80;;;;;;5094230;28;20218;-40
2021/04/30 11:49:32;;;;;;;14.98;13.55;;;19.00;78.90;;;;;;5094456;28;20214;-41
2021/04/30 11:51:59;;;;;;;16.50;14.95;;;19.10;78.60;;;;;;5094398;28;20736;-41
2021/04/30 11:54:29;;;;;;;15.63;13.95;;;19.20;78.50;;;;;;5094299;28;20272;-41
2021/04/30 11:57:01;;;;;;;15.82;14.23;;;19.30;78.70;;;;;;5094072;28;20430;-41
2021/04/30 11:59:30;;;;;;;14.85;13.55;;;19.40;78.60;;;;;;5093966;28;20222;-42
2021/04/30 12:02:04;;;;;;;14.88;13.57;;;19.50;78.40;;;;;;5094067;28;20203;-40
2021/04/30 12:04:40;;;;;;;15.00;13.57;;;19.60;78.20;;;;;;5094207;28;20212;-41
2021/04/30 12:07:29;;;;;;;15.27;13.98;;;19.80;78.40;;;;;;5093673;28;20221;-41
2021/04/30 12:09:57;;;;;;;15.43;13.32;;;19.70;78.20;;;;;;5094252;28;20340;-41
2021/04/30 12:12:26;;;;;;;15.13;13.73;;;19.70;78.40;;;;;;5094013;28;20286;-43
2021/04/30 12:14:57;;;;;;;26.10;23.58;;;19.70;78.20;;;;;;5094006;28;20260;-43
2021/04/30 12:17:27;;;;;;;13.20;12.10;;;19.80;78.00;;;;;;5094230;28;20241;-43
2021/04/30 12:19:55;;;;;;;17.40;15.80;;;19.90;78.00;;;;;;5093806;28;20206;-43
2021/04/30 12:22:22;;;;;;;20.60;18.42;;;20.00;77.80;;;;;;5093659;28;20231;-42
2021/04/30 12:25:20;;;;;;;15.32;13.70;;;20.10;77.70;;;;;;5093869;28;20635;-42
2021/04/30 12:27:47;;;;;;;14.98;13.50;;;20.20;77.20;;;;;;5093689;28;20298;-42
2021/04/30 12:30:26;;;;;;;15.52;14.02;;;20.10;77.60;;;;;;5093683;28;20748;-42
2021/04/30 12:32:53;;;;;;;14.88;13.48;;;20.00;77.50;;;;;;5093805;28;20206;-46
2021/04/30 12:35:21;;;;;;;12.50;11.30;;;20.00;77.60;;;;;;5093925;28;20255;-42
2021/04/30 12:38:08;;;;;;;15.93;14.43;;;20.10;77.50;;;;;;5093950;28;20208;-41